sensor_id;sensor_type;location;lat;lon;timestamp;temperature;humidity
1347;DHT22;667;48.796;9.480;2022-08-27T00:00:41;21.60;85.30
1347;DHT22;667;48.796;9.480;2022-08-27T00:03:07;21.60;85.50
1347;DHT22;667;48.796;9.480;2022-08-27T00:05:33;21.60;85.70
1347;DHT22;667;48.796;9.480;2022-08-27T00:07:59;21.60;85.90
1347;DHT22;667;48.796;9.480;2022-08-27T00:10:26;21.60;85.90
1347;DHT22;667;48.796;9.480;2022-08-27T00:12:52;21.70;86.20
1347;DHT22;667;48.796;9.480;2022-08-27T00:15:20;21.70;86.30
1347;DHT22;667;48.796;9.480;2022-08-27T00:17:47;21.70;86.40
1347;DHT22;667;48.796;9.480;2022-08-27T00:20:15;21.70;86.50
1347;DHT22;667;48.796;9.480;2022-08-27T00:22:41;21.70;86.60
1347;DHT22;667;48.796;9.480;2022-08-27T00:25:08;21.70;86.60
1347;DHT22;667;48.796;9.480;2022-08-27T00:27:34;21.70;86.80
1347;DHT22;667;48.796;9.480;2022-08-27T00:29:59;21.70;86.90
1347;DHT22;667;48.796;9.480;2022-08-27T00:32:25;21.70;87.00
1347;DHT22;667;48.796;9.480;2022-08-27T00:34:51;21.70;87.10
1347;DHT22;667;48.796;9.480;2022-08-27T00:37:17;21.70;87.20
1347;DHT22;667;48.796;9.480;2022-08-27T00:39:44;21.70;87.30
1347;DHT22;667;48.796;9.480;2022-08-27T00:42:10;21.70;87.40
1347;DHT22;667;48.796;9.480;2022-08-27T00:44:36;21.70;88.10
1347;DHT22;667;48.796;9.480;2022-08-27T00:47:06;21.70;87.60
1347;DHT22;667;48.796;9.480;2022-08-27T00:49:44;21.70;87.80
1347;DHT22;667;48.796;9.480;2022-08-27T00:52:26;21.70;88.10
1347;DHT22;667;48.796;9.480;2022-08-27T00:55:00;21.70;88.30
1347;DHT22;667;48.796;9.480;2022-08-27T00:57:27;21.70;88.50
1347;DHT22;667;48.796;9.480;2022-08-27T00:59:54;21.70;88.70
1347;DHT22;667;48.796;9.480;2022-08-27T01:02:20;21.80;88.90
1347;DHT22;667;48.796;9.480;2022-08-27T01:04:53;21.80;89.10
1347;DHT22;667;48.796;9.480;2022-08-27T01:07:19;21.80;89.20
1347;DHT22;667;48.796;9.480;2022-08-27T01:09:47;21.80;89.20
1347;DHT22;667;48.796;9.480;2022-08-27T01:12:14;21.80;89.10
1347;DHT22;667;48.796;9.480;2022-08-27T01:14:41;21.80;89.00
1347;DHT22;667;48.796;9.480;2022-08-27T01:17:08;21.80;89.70
1347;DHT22;667;48.796;9.480;2022-08-27T01:22:25;21.80;88.80
1347;DHT22;667;48.796;9.480;2022-08-27T01:24:55;21.80;88.90
1347;DHT22;667;48.796;9.480;2022-08-27T01:27:25;21.80;88.90
1347;DHT22;667;48.796;9.480;2022-08-27T01:29:51;21.80;89.00
1347;DHT22;667;48.796;9.480;2022-08-27T01:32:21;21.80;89.20
1347;DHT22;667;48.796;9.480;2022-08-27T01:34:47;21.80;89.40
1347;DHT22;667;48.796;9.480;2022-08-27T01:37:15;21.80;89.40
1347;DHT22;667;48.796;9.480;2022-08-27T01:39:41;21.80;89.50
1347;DHT22;667;48.796;9.480;2022-08-27T01:42:19;21.80;89.50
1347;DHT22;667;48.796;9.480;2022-08-27T01:44:53;21.80;89.50
1347;DHT22;667;48.796;9.480;2022-08-27T01:47:22;21.80;89.70
1347;DHT22;667;48.796;9.480;2022-08-27T01:49:48;21.80;89.70
1347;DHT22;667;48.796;9.480;2022-08-27T01:52:16;21.80;89.80
1347;DHT22;667;48.796;9.480;2022-08-27T01:54:42;21.80;89.90
1347;DHT22;667;48.796;9.480;2022-08-27T01:57:08;21.70;90.00
1347;DHT22;667;48.796;9.480;2022-08-27T01:59:34;21.70;90.10
1347;DHT22;667;48.796;9.480;2022-08-27T02:02:00;21.70;90.50
1347;DHT22;667;48.796;9.480;2022-08-27T02:04:28;21.80;90.20
1347;DHT22;667;48.796;9.480;2022-08-27T02:06:54;21.80;90.30
1347;DHT22;667;48.796;9.480;2022-08-27T02:09:19;21.80;90.20
1347;DHT22;667;48.796;9.480;2022-08-27T02:11:45;21.80;90.20
1347;DHT22;667;48.796;9.480;2022-08-27T02:14:11;21.80;90.20
1347;DHT22;667;48.796;9.480;2022-08-27T02:16:37;21.80;90.20
1347;DHT22;667;48.796;9.480;2022-08-27T02:19:03;21.80;90.30
1347;DHT22;667;48.796;9.480;2022-08-27T02:21:29;21.80;90.30
1347;DHT22;667;48.796;9.480;2022-08-27T02:23:55;21.80;90.30
1347;DHT22;667;48.796;9.480;2022-08-27T02:26:21;21.80;90.30
1347;DHT22;667;48.796;9.480;2022-08-27T02:28:47;21.80;90.30
1347;DHT22;667;48.796;9.480;2022-08-27T02:31:13;21.80;90.30
1347;DHT22;667;48.796;9.480;2022-08-27T02:33:38;21.80;90.30
1347;DHT22;667;48.796;9.480;2022-08-27T02:36:04;21.90;90.40
1347;DHT22;667;48.796;9.480;2022-08-27T02:38:30;21.90;90.40
1347;DHT22;667;48.796;9.480;2022-08-27T02:40:56;21.90;90.40
1347;DHT22;667;48.796;9.480;2022-08-27T02:43:21;21.90;90.30
1347;DHT22;667;48.796;9.480;2022-08-27T02:45:47;21.90;90.30
1347;DHT22;667;48.796;9.480;2022-08-27T02:48:13;21.90;90.30
1347;DHT22;667;48.796;9.480;2022-08-27T02:50:39;21.90;90.30
1347;DHT22;667;48.796;9.480;2022-08-27T02:53:05;21.90;90.30
1347;DHT22;667;48.796;9.480;2022-08-27T02:55:31;21.90;90.40
1347;DHT22;667;48.796;9.480;2022-08-27T02:57:57;21.90;90.40
1347;DHT22;667;48.796;9.480;2022-08-27T03:00:24;21.90;90.30
1347;DHT22;667;48.796;9.480;2022-08-27T03:02:50;21.90;90.40
1347;DHT22;667;48.796;9.480;2022-08-27T03:05:16;21.90;90.30
1347;DHT22;667;48.796;9.480;2022-08-27T03:07:42;21.90;90.40
1347;DHT22;667;48.796;9.480;2022-08-27T03:10:10;21.90;90.50
1347;DHT22;667;48.796;9.480;2022-08-27T03:12:38;22.00;90.50
1347;DHT22;667;48.796;9.480;2022-08-27T03:15:07;21.90;90.50
1347;DHT22;667;48.796;9.480;2022-08-27T03:17:33;22.00;90.50
1347;DHT22;667;48.796;9.480;2022-08-27T03:20:17;22.00;90.80
1347;DHT22;667;48.796;9.480;2022-08-27T03:22:46;21.90;90.40
1347;DHT22;667;48.796;9.480;2022-08-27T03:25:14;22.00;90.50
1347;DHT22;667;48.796;9.480;2022-08-27T03:27:40;22.00;90.60
1347;DHT22;667;48.796;9.480;2022-08-27T03:30:09;22.00;91.00
1347;DHT22;667;48.796;9.480;2022-08-27T03:32:36;22.00;90.70
1347;DHT22;667;48.796;9.480;2022-08-27T03:35:02;22.00;90.80
1347;DHT22;667;48.796;9.480;2022-08-27T03:37:28;22.00;90.80
1347;DHT22;667;48.796;9.480;2022-08-27T03:39:54;22.00;90.90
1347;DHT22;667;48.796;9.480;2022-08-27T03:42:20;22.00;90.90
1347;DHT22;667;48.796;9.480;2022-08-27T03:44:47;22.00;90.80
1347;DHT22;667;48.796;9.480;2022-08-27T03:47:13;22.00;90.80
1347;DHT22;667;48.796;9.480;2022-08-27T03:49:39;22.10;90.80
1347;DHT22;667;48.796;9.480;2022-08-27T03:52:06;22.10;90.90
1347;DHT22;667;48.796;9.480;2022-08-27T03:54:36;22.10;90.90
1347;DHT22;667;48.796;9.480;2022-08-27T03:57:03;22.10;90.90
1347;DHT22;667;48.796;9.480;2022-08-27T03:59:29;22.10;90.90
1347;DHT22;667;48.796;9.480;2022-08-27T04:01:54;22.10;90.90
1347;DHT22;667;48.796;9.480;2022-08-27T04:04:20;22.00;90.80
1347;DHT22;667;48.796;9.480;2022-08-27T04:06:48;22.00;90.80
1347;DHT22;667;48.796;9.480;2022-08-27T04:09:13;22.00;90.80
1347;DHT22;667;48.796;9.480;2022-08-27T04:11:39;22.00;90.70
1347;DHT22;667;48.796;9.480;2022-08-27T04:14:05;22.00;90.70
1347;DHT22;667;48.796;9.480;2022-08-27T04:16:33;22.00;90.70
1347;DHT22;667;48.796;9.480;2022-08-27T04:18:59;22.00;90.70
1347;DHT22;667;48.796;9.480;2022-08-27T04:21:24;22.00;90.80
1347;DHT22;667;48.796;9.480;2022-08-27T04:23:50;22.00;90.90
1347;DHT22;667;48.796;9.480;2022-08-27T04:26:16;22.00;90.90
1347;DHT22;667;48.796;9.480;2022-08-27T04:28:42;22.00;90.90
1347;DHT22;667;48.796;9.480;2022-08-27T04:31:08;22.00;90.90
1347;DHT22;667;48.796;9.480;2022-08-27T04:33:34;22.00;90.90
1347;DHT22;667;48.796;9.480;2022-08-27T04:36:03;22.00;90.90
1347;DHT22;667;48.796;9.480;2022-08-27T04:38:29;22.00;90.90
1347;DHT22;667;48.796;9.480;2022-08-27T04:40:54;22.00;90.70
1347;DHT22;667;48.796;9.480;2022-08-27T04:43:39;21.90;90.60
1347;DHT22;667;48.796;9.480;2022-08-27T04:46:05;21.90;90.60
1347;DHT22;667;48.796;9.480;2022-08-27T04:48:30;21.90;90.60
1347;DHT22;667;48.796;9.480;2022-08-27T04:50:56;21.90;90.60
1347;DHT22;667;48.796;9.480;2022-08-27T04:53:22;21.90;90.60
1347;DHT22;667;48.796;9.480;2022-08-27T04:55:50;21.80;90.50
1347;DHT22;667;48.796;9.480;2022-08-27T04:58:17;21.80;90.50
1347;DHT22;667;48.796;9.480;2022-08-27T05:00:47;21.80;90.50
1347;DHT22;667;48.796;9.480;2022-08-27T05:03:14;21.80;90.40
1347;DHT22;667;48.796;9.480;2022-08-27T05:05:43;21.80;90.40
1347;DHT22;667;48.796;9.480;2022-08-27T05:08:10;21.80;90.40
1347;DHT22;667;48.796;9.480;2022-08-27T05:10:46;21.80;90.40
1347;DHT22;667;48.796;9.480;2022-08-27T05:13:12;21.80;90.30
1347;DHT22;667;48.796;9.480;2022-08-27T05:15:39;21.80;90.30
1347;DHT22;667;48.796;9.480;2022-08-27T05:18:06;21.80;90.30
1347;DHT22;667;48.796;9.480;2022-08-27T05:20:33;21.90;90.30
1347;DHT22;667;48.796;9.480;2022-08-27T05:23:05;21.80;90.60
1347;DHT22;667;48.796;9.480;2022-08-27T05:25:30;21.80;90.30
1347;DHT22;667;48.796;9.480;2022-08-27T05:27:56;21.80;90.40
1347;DHT22;667;48.796;9.480;2022-08-27T05:30:22;21.80;90.30
1347;DHT22;667;48.796;9.480;2022-08-27T05:32:47;21.80;90.40
1347;DHT22;667;48.796;9.480;2022-08-27T05:35:13;21.80;90.40
1347;DHT22;667;48.796;9.480;2022-08-27T05:37:39;21.80;90.40
1347;DHT22;667;48.796;9.480;2022-08-27T05:40:05;21.80;90.50
1347;DHT22;667;48.796;9.480;2022-08-27T05:42:31;21.80;90.50
1347;DHT22;667;48.796;9.480;2022-08-27T05:44:57;21.80;90.50
1347;DHT22;667;48.796;9.480;2022-08-27T05:47:23;21.80;90.60
1347;DHT22;667;48.796;9.480;2022-08-27T05:49:53;21.80;90.50
1347;DHT22;667;48.796;9.480;2022-08-27T05:52:19;21.90;90.60
1347;DHT22;667;48.796;9.480;2022-08-27T05:54:46;21.90;90.60
1347;DHT22;667;48.796;9.480;2022-08-27T05:57:12;21.90;90.60
1347;DHT22;667;48.796;9.480;2022-08-27T05:59:38;21.90;90.60
1347;DHT22;667;48.796;9.480;2022-08-27T06:02:22;22.00;90.60
1347;DHT22;667;48.796;9.480;2022-08-27T06:04:48;22.00;90.50
1347;DHT22;667;48.796;9.480;2022-08-27T06:07:13;22.00;90.50
1347;DHT22;667;48.796;9.480;2022-08-27T06:09:40;22.00;90.50
1347;DHT22;667;48.796;9.480;2022-08-27T06:12:07;22.10;90.50
1347;DHT22;667;48.796;9.480;2022-08-27T06:14:35;22.10;90.40
1347;DHT22;667;48.796;9.480;2022-08-27T06:17:01;22.10;90.40
1347;DHT22;667;48.796;9.480;2022-08-27T06:19:27;22.10;90.40
1347;DHT22;667;48.796;9.480;2022-08-27T06:21:53;22.10;90.30
1347;DHT22;667;48.796;9.480;2022-08-27T06:24:19;22.10;90.30
1347;DHT22;667;48.796;9.480;2022-08-27T06:26:44;22.10;90.30
1347;DHT22;667;48.796;9.480;2022-08-27T06:29:11;22.20;90.30
1347;DHT22;667;48.796;9.480;2022-08-27T06:31:37;22.20;90.30
1347;DHT22;667;48.796;9.480;2022-08-27T06:34:05;22.20;90.30
1347;DHT22;667;48.796;9.480;2022-08-27T06:36:32;22.20;90.60
1347;DHT22;667;48.796;9.480;2022-08-27T06:38:59;22.20;90.20
1347;DHT22;667;48.796;9.480;2022-08-27T06:41:27;22.30;90.20
1347;DHT22;667;48.796;9.480;2022-08-27T06:43:54;22.30;90.20
1347;DHT22;667;48.796;9.480;2022-08-27T06:46:22;22.30;90.20
1347;DHT22;667;48.796;9.480;2022-08-27T06:48:53;22.30;90.10
1347;DHT22;667;48.796;9.480;2022-08-27T06:51:25;22.30;90.10
1347;DHT22;667;48.796;9.480;2022-08-27T06:53:53;22.30;90.10
1347;DHT22;667;48.796;9.480;2022-08-27T06:56:19;22.40;90.10
1347;DHT22;667;48.796;9.480;2022-08-27T06:58:45;22.40;90.00
1347;DHT22;667;48.796;9.480;2022-08-27T07:03:38;22.40;90.00
1347;DHT22;667;48.796;9.480;2022-08-27T07:06:05;22.30;89.80
1347;DHT22;667;48.796;9.480;2022-08-27T07:08:32;22.30;89.90
1347;DHT22;667;48.796;9.480;2022-08-27T07:10:58;22.40;90.00
1347;DHT22;667;48.796;9.480;2022-08-27T07:13:23;22.40;90.00
1347;DHT22;667;48.796;9.480;2022-08-27T07:15:49;22.30;89.90
1347;DHT22;667;48.796;9.480;2022-08-27T07:18:15;22.30;89.80
1347;DHT22;667;48.796;9.480;2022-08-27T07:20:41;22.40;90.00
1347;DHT22;667;48.796;9.480;2022-08-27T07:23:08;22.40;90.00
1347;DHT22;667;48.796;9.480;2022-08-27T07:25:33;22.40;90.00
1347;DHT22;667;48.796;9.480;2022-08-27T07:27:59;22.40;90.10
1347;DHT22;667;48.796;9.480;2022-08-27T07:30:25;22.40;90.10
1347;DHT22;667;48.796;9.480;2022-08-27T07:32:52;22.40;90.00
1347;DHT22;667;48.796;9.480;2022-08-27T07:35:18;22.40;90.00
1347;DHT22;667;48.796;9.480;2022-08-27T07:37:43;22.40;90.00
1347;DHT22;667;48.796;9.480;2022-08-27T07:40:14;22.50;90.00
1347;DHT22;667;48.796;9.480;2022-08-27T07:42:40;22.50;90.00
1347;DHT22;667;48.796;9.480;2022-08-27T07:45:26;22.50;90.00
1347;DHT22;667;48.796;9.480;2022-08-27T07:47:52;22.50;89.90
1347;DHT22;667;48.796;9.480;2022-08-27T07:50:18;22.50;90.00
1347;DHT22;667;48.796;9.480;2022-08-27T07:52:43;22.50;90.00
1347;DHT22;667;48.796;9.480;2022-08-27T07:55:10;22.50;89.90
1347;DHT22;667;48.796;9.480;2022-08-27T07:57:36;22.50;89.80
1347;DHT22;667;48.796;9.480;2022-08-27T08:00:04;22.50;89.60
1347;DHT22;667;48.796;9.480;2022-08-27T08:02:29;22.50;89.40
1347;DHT22;667;48.796;9.480;2022-08-27T08:04:55;22.60;89.40
1347;DHT22;667;48.796;9.480;2022-08-27T08:07:21;22.60;89.40
1347;DHT22;667;48.796;9.480;2022-08-27T08:09:47;22.60;89.30
1347;DHT22;667;48.796;9.480;2022-08-27T08:12:13;22.60;89.10
1347;DHT22;667;48.796;9.480;2022-08-27T08:14:39;22.70;89.20
1347;DHT22;667;48.796;9.480;2022-08-27T08:17:05;22.70;89.30
1347;DHT22;667;48.796;9.480;2022-08-27T08:19:30;22.70;89.20
1347;DHT22;667;48.796;9.480;2022-08-27T08:21:58;22.70;89.20
1347;DHT22;667;48.796;9.480;2022-08-27T08:24:24;22.70;89.10
1347;DHT22;667;48.796;9.480;2022-08-27T08:26:49;22.70;89.00
1347;DHT22;667;48.796;9.480;2022-08-27T08:29:15;22.70;88.90
1347;DHT22;667;48.796;9.480;2022-08-27T08:31:41;22.70;88.80
1347;DHT22;667;48.796;9.480;2022-08-27T08:34:07;22.70;88.70
1347;DHT22;667;48.796;9.480;2022-08-27T08:36:32;22.80;88.90
1347;DHT22;667;48.796;9.480;2022-08-27T08:38:58;22.80;88.80
1347;DHT22;667;48.796;9.480;2022-08-27T08:43:54;22.80;88.60
1347;DHT22;667;48.796;9.480;2022-08-27T08:48:55;22.80;88.70
1347;DHT22;667;48.796;9.480;2022-08-27T08:51:35;22.80;88.60
1347;DHT22;667;48.796;9.480;2022-08-27T08:54:08;22.80;88.50
1347;DHT22;667;48.796;9.480;2022-08-27T08:56:53;22.80;88.40
1347;DHT22;667;48.796;9.480;2022-08-27T08:59:28;22.80;88.40
1347;DHT22;667;48.796;9.480;2022-08-27T09:01:56;22.80;88.20
1347;DHT22;667;48.796;9.480;2022-08-27T09:04:24;22.80;88.10
1347;DHT22;667;48.796;9.480;2022-08-27T09:07:21;22.80;88.10
1347;DHT22;667;48.796;9.480;2022-08-27T09:13:57;22.80;88.00
1347;DHT22;667;48.796;9.480;2022-08-27T09:16:24;22.80;88.20
1347;DHT22;667;48.796;9.480;2022-08-27T09:18:50;22.70;88.50
1347;DHT22;667;48.796;9.480;2022-08-27T09:26:35;22.70;90.20
1347;DHT22;667;48.796;9.480;2022-08-27T09:29:05;22.70;90.40
1347;DHT22;667;48.796;9.480;2022-08-27T09:31:45;22.60;90.50
1347;DHT22;667;48.796;9.480;2022-08-27T09:34:11;22.60;90.60
1347;DHT22;667;48.796;9.480;2022-08-27T09:42:27;22.50;90.40
1347;DHT22;667;48.796;9.480;2022-08-27T09:44:54;22.50;90.50
1347;DHT22;667;48.796;9.480;2022-08-27T09:47:20;22.50;90.60
1347;DHT22;667;48.796;9.480;2022-08-27T09:49:46;22.50;90.80
1347;DHT22;667;48.796;9.480;2022-08-27T09:52:32;22.50;91.00
1347;DHT22;667;48.796;9.480;2022-08-27T09:54:59;22.40;91.00
1347;DHT22;667;48.796;9.480;2022-08-27T09:57:34;22.40;91.20
1347;DHT22;667;48.796;9.480;2022-08-27T10:00:00;22.40;91.20
1347;DHT22;667;48.796;9.480;2022-08-27T10:02:27;22.40;91.30
1347;DHT22;667;48.796;9.480;2022-08-27T10:04:55;22.40;91.40
1347;DHT22;667;48.796;9.480;2022-08-27T10:07:48;22.40;91.40
1347;DHT22;667;48.796;9.480;2022-08-27T10:10:36;22.40;91.40
1347;DHT22;667;48.796;9.480;2022-08-27T10:13:50;22.40;91.40
1347;DHT22;667;48.796;9.480;2022-08-27T10:19:36;22.40;91.40
1347;DHT22;667;48.796;9.480;2022-08-27T10:22:31;22.40;91.40
1347;DHT22;667;48.796;9.480;2022-08-27T10:50:24;22.40;92.20
1347;DHT22;667;48.796;9.480;2022-08-27T10:52:57;22.40;92.30
1347;DHT22;667;48.796;9.480;2022-08-27T10:55:28;22.40;92.40
1347;DHT22;667;48.796;9.480;2022-08-27T11:05:52;22.50;92.90
1347;DHT22;667;48.796;9.480;2022-08-27T11:08:32;22.40;92.90
1347;DHT22;667;48.796;9.480;2022-08-27T11:11:04;22.50;93.20
1347;DHT22;667;48.796;9.480;2022-08-27T11:13:38;22.50;93.30
1347;DHT22;667;48.796;9.480;2022-08-27T11:16:23;22.50;93.30
1347;DHT22;667;48.796;9.480;2022-08-27T11:18:56;22.50;93.30
1347;DHT22;667;48.796;9.480;2022-08-27T11:21:31;22.50;93.30
1347;DHT22;667;48.796;9.480;2022-08-27T11:26:29;22.50;93.40
1347;DHT22;667;48.796;9.480;2022-08-27T11:28:59;22.50;93.60
1347;DHT22;667;48.796;9.480;2022-08-27T11:31:35;22.50;93.50
1347;DHT22;667;48.796;9.480;2022-08-27T11:39:20;22.50;93.60
1347;DHT22;667;48.796;9.480;2022-08-27T11:44:22;22.60;93.70
1347;DHT22;667;48.796;9.480;2022-08-27T11:49:49;22.60;93.90
1347;DHT22;667;48.796;9.480;2022-08-27T11:52:28;22.60;93.90
1347;DHT22;667;48.796;9.480;2022-08-27T11:57:37;22.60;93.80
1347;DHT22;667;48.796;9.480;2022-08-27T12:00:35;22.60;93.80
1347;DHT22;667;48.796;9.480;2022-08-27T12:03:08;22.70;94.10
1347;DHT22;667;48.796;9.480;2022-08-27T12:08:29;22.70;94.30
1347;DHT22;667;48.796;9.480;2022-08-27T12:11:44;22.70;94.30
1347;DHT22;667;48.796;9.480;2022-08-27T12:19:51;22.80;93.90
1347;DHT22;667;48.796;9.480;2022-08-27T12:25:26;22.80;93.80
1347;DHT22;667;48.796;9.480;2022-08-27T12:28:01;22.80;93.80
1347;DHT22;667;48.796;9.480;2022-08-27T12:30:33;22.80;93.70
1347;DHT22;667;48.796;9.480;2022-08-27T12:36:04;22.80;93.50
1347;DHT22;667;48.796;9.480;2022-08-27T12:40:58;22.80;93.30
1347;DHT22;667;48.796;9.480;2022-08-27T12:43:29;22.70;93.00
1347;DHT22;667;48.796;9.480;2022-08-27T12:48:31;22.60;92.50
1347;DHT22;667;48.796;9.480;2022-08-27T12:51:25;22.60;92.50
1347;DHT22;667;48.796;9.480;2022-08-27T13:02:12;22.60;92.80
1347;DHT22;667;48.796;9.480;2022-08-27T13:04:42;22.60;93.00
1347;DHT22;667;48.796;9.480;2022-08-27T13:07:08;22.60;93.10
1347;DHT22;667;48.796;9.480;2022-08-27T13:09:36;22.70;93.20
1347;DHT22;667;48.796;9.480;2022-08-27T13:12:06;22.70;93.20
1347;DHT22;667;48.796;9.480;2022-08-27T13:14:39;22.80;93.10
1347;DHT22;667;48.796;9.480;2022-08-27T13:17:16;22.80;93.00
1347;DHT22;667;48.796;9.480;2022-08-27T13:19:46;22.80;92.70
1347;DHT22;667;48.796;9.480;2022-08-27T13:22:36;22.80;92.30
1347;DHT22;667;48.796;9.480;2022-08-27T13:25:04;22.90;92.30
1347;DHT22;667;48.796;9.480;2022-08-27T13:27:35;22.90;92.50
1347;DHT22;667;48.796;9.480;2022-08-27T13:30:09;22.90;92.50
1347;DHT22;667;48.796;9.480;2022-08-27T13:32:36;23.00;92.60
1347;DHT22;667;48.796;9.480;2022-08-27T13:35:02;23.00;92.70
1347;DHT22;667;48.796;9.480;2022-08-27T13:37:48;23.00;92.70
1347;DHT22;667;48.796;9.480;2022-08-27T13:40:29;23.00;92.70
1347;DHT22;667;48.796;9.480;2022-08-27T13:43:08;23.00;92.60
1347;DHT22;667;48.796;9.480;2022-08-27T13:45:36;23.10;92.80
1347;DHT22;667;48.796;9.480;2022-08-27T13:48:04;23.10;92.90
1347;DHT22;667;48.796;9.480;2022-08-27T13:50:32;23.10;93.00
1347;DHT22;667;48.796;9.480;2022-08-27T13:53:21;23.10;93.00
1347;DHT22;667;48.796;9.480;2022-08-27T13:56:07;23.10;92.80
1347;DHT22;667;48.796;9.480;2022-08-27T13:58:33;23.20;92.50
1347;DHT22;667;48.796;9.480;2022-08-27T14:03:35;23.20;92.10
1347;DHT22;667;48.796;9.480;2022-08-27T14:06:01;23.20;91.90
1347;DHT22;667;48.796;9.480;2022-08-27T14:08:30;23.20;91.80
1347;DHT22;667;48.796;9.480;2022-08-27T14:11:03;23.20;91.80
1347;DHT22;667;48.796;9.480;2022-08-27T14:13:37;23.20;91.80
1347;DHT22;667;48.796;9.480;2022-08-27T14:16:15;23.20;91.60
1347;DHT22;667;48.796;9.480;2022-08-27T14:19:01;23.20;91.40
1347;DHT22;667;48.796;9.480;2022-08-27T14:21:28;23.20;91.30
1347;DHT22;667;48.796;9.480;2022-08-27T14:23:54;23.30;91.50
1347;DHT22;667;48.796;9.480;2022-08-27T14:26:20;23.30;91.50
1347;DHT22;667;48.796;9.480;2022-08-27T14:28:45;23.30;91.50
1347;DHT22;667;48.796;9.480;2022-08-27T14:31:12;23.30;91.40
1347;DHT22;667;48.796;9.480;2022-08-27T14:33:38;23.40;91.50
1347;DHT22;667;48.796;9.480;2022-08-27T14:36:04;23.40;91.50
1347;DHT22;667;48.796;9.480;2022-08-27T14:38:31;23.40;91.70
1347;DHT22;667;48.796;9.480;2022-08-27T14:40:58;23.50;91.60
1347;DHT22;667;48.796;9.480;2022-08-27T14:43:23;23.50;91.20
1347;DHT22;667;48.796;9.480;2022-08-27T14:45:50;23.60;91.00
1347;DHT22;667;48.796;9.480;2022-08-27T14:48:21;23.60;91.10
1347;DHT22;667;48.796;9.480;2022-08-27T14:50:47;23.60;90.90
1347;DHT22;667;48.796;9.480;2022-08-27T14:53:14;23.70;90.60
1347;DHT22;667;48.796;9.480;2022-08-27T14:55:39;23.70;90.50
1347;DHT22;667;48.796;9.480;2022-08-27T14:58:05;23.80;90.50
1347;DHT22;667;48.796;9.480;2022-08-27T15:00:31;23.80;90.40
1347;DHT22;667;48.796;9.480;2022-08-27T15:02:57;23.90;90.50
1347;DHT22;667;48.796;9.480;2022-08-27T15:05:24;23.90;90.40
1347;DHT22;667;48.796;9.480;2022-08-27T15:07:50;24.00;90.40
1347;DHT22;667;48.796;9.480;2022-08-27T15:10:18;24.00;90.40
1347;DHT22;667;48.796;9.480;2022-08-27T15:12:43;24.00;90.20
1347;DHT22;667;48.796;9.480;2022-08-27T15:15:10;24.00;90.00
1347;DHT22;667;48.796;9.480;2022-08-27T15:17:36;24.10;89.80
1347;DHT22;667;48.796;9.480;2022-08-27T15:20:05;24.00;89.60
1347;DHT22;667;48.796;9.480;2022-08-27T15:22:33;24.10;89.50
1347;DHT22;667;48.796;9.480;2022-08-27T15:25:00;24.10;89.00
1347;DHT22;667;48.796;9.480;2022-08-27T15:27:26;24.00;89.10
1347;DHT22;667;48.796;9.480;2022-08-27T15:29:53;24.00;89.50
1347;DHT22;667;48.796;9.480;2022-08-27T15:32:29;24.00;89.10
1347;DHT22;667;48.796;9.480;2022-08-27T15:34:56;24.00;88.80
1347;DHT22;667;48.796;9.480;2022-08-27T15:37:22;24.00;88.60
1347;DHT22;667;48.796;9.480;2022-08-27T15:39:48;24.00;88.40
1347;DHT22;667;48.796;9.480;2022-08-27T15:42:14;24.00;88.50
1347;DHT22;667;48.796;9.480;2022-08-27T15:44:46;24.00;88.70
1347;DHT22;667;48.796;9.480;2022-08-27T15:47:13;24.10;88.90
1347;DHT22;667;48.796;9.480;2022-08-27T15:49:39;24.10;88.80
1347;DHT22;667;48.796;9.480;2022-08-27T15:52:10;24.10;88.90
1347;DHT22;667;48.796;9.480;2022-08-27T15:54:36;24.10;88.70
1347;DHT22;667;48.796;9.480;2022-08-27T15:57:03;24.10;88.70
1347;DHT22;667;48.796;9.480;2022-08-27T15:59:29;24.10;88.60
1347;DHT22;667;48.796;9.480;2022-08-27T16:01:55;24.10;88.60
1347;DHT22;667;48.796;9.480;2022-08-27T16:04:21;24.10;88.90
1347;DHT22;667;48.796;9.480;2022-08-27T16:06:47;24.00;89.00
1347;DHT22;667;48.796;9.480;2022-08-27T16:09:16;24.00;89.20
1347;DHT22;667;48.796;9.480;2022-08-27T16:11:41;24.00;89.40
1347;DHT22;667;48.796;9.480;2022-08-27T16:14:10;23.90;89.60
1347;DHT22;667;48.796;9.480;2022-08-27T16:16:36;23.90;90.00
1347;DHT22;667;48.796;9.480;2022-08-27T16:19:04;23.90;90.20
1347;DHT22;667;48.796;9.480;2022-08-27T16:21:30;23.90;90.40
1347;DHT22;667;48.796;9.480;2022-08-27T16:23:56;23.90;90.60
1347;DHT22;667;48.796;9.480;2022-08-27T16:26:21;23.90;90.60
1347;DHT22;667;48.796;9.480;2022-08-27T16:28:47;23.90;90.60
1347;DHT22;667;48.796;9.480;2022-08-27T16:31:13;23.90;90.70
1347;DHT22;667;48.796;9.480;2022-08-27T16:33:42;23.90;90.80
1347;DHT22;667;48.796;9.480;2022-08-27T16:36:09;23.90;90.80
1347;DHT22;667;48.796;9.480;2022-08-27T16:38:35;23.90;90.70
1347;DHT22;667;48.796;9.480;2022-08-27T16:41:00;23.80;90.60
1347;DHT22;667;48.796;9.480;2022-08-27T16:43:28;23.70;90.70
1347;DHT22;667;48.796;9.480;2022-08-27T16:45:56;23.80;90.80
1347;DHT22;667;48.796;9.480;2022-08-27T16:48:23;23.70;90.80
1347;DHT22;667;48.796;9.480;2022-08-27T16:51:16;23.70;90.80
1347;DHT22;667;48.796;9.480;2022-08-27T16:53:43;23.70;90.80
1347;DHT22;667;48.796;9.480;2022-08-27T16:56:09;23.70;90.90
1347;DHT22;667;48.796;9.480;2022-08-27T16:58:35;23.70;90.90
1347;DHT22;667;48.796;9.480;2022-08-27T17:01:04;23.70;90.90
1347;DHT22;667;48.796;9.480;2022-08-27T17:03:30;23.70;91.10
1347;DHT22;667;48.796;9.480;2022-08-27T17:05:56;23.70;91.50
1347;DHT22;667;48.796;9.480;2022-08-27T17:08:23;23.70;91.50
1347;DHT22;667;48.796;9.480;2022-08-27T17:10:53;23.70;91.30
1347;DHT22;667;48.796;9.480;2022-08-27T17:13:22;23.70;91.40
1347;DHT22;667;48.796;9.480;2022-08-27T17:15:49;23.70;91.50
1347;DHT22;667;48.796;9.480;2022-08-27T17:18:19;23.80;91.70
1347;DHT22;667;48.796;9.480;2022-08-27T17:20:46;23.70;91.90
1347;DHT22;667;48.796;9.480;2022-08-27T17:23:20;23.80;92.10
1347;DHT22;667;48.796;9.480;2022-08-27T17:25:47;23.70;92.20
1347;DHT22;667;48.796;9.480;2022-08-27T17:28:13;23.70;92.40
1347;DHT22;667;48.796;9.480;2022-08-27T17:30:39;23.70;92.40
1347;DHT22;667;48.796;9.480;2022-08-27T17:33:05;23.70;92.50
1347;DHT22;667;48.796;9.480;2022-08-27T17:35:31;23.70;92.50
1347;DHT22;667;48.796;9.480;2022-08-27T17:37:57;23.70;92.50
1347;DHT22;667;48.796;9.480;2022-08-27T17:40:23;23.60;92.20
1347;DHT22;667;48.796;9.480;2022-08-27T17:42:48;23.60;91.90
1347;DHT22;667;48.796;9.480;2022-08-27T17:45:14;23.50;91.60
1347;DHT22;667;48.796;9.480;2022-08-27T17:47:42;23.50;91.40
1347;DHT22;667;48.796;9.480;2022-08-27T17:50:08;23.50;91.30
1347;DHT22;667;48.796;9.480;2022-08-27T17:52:37;23.40;91.20
1347;DHT22;667;48.796;9.480;2022-08-27T17:55:03;23.40;91.20
1347;DHT22;667;48.796;9.480;2022-08-27T17:57:31;23.30;91.20
1347;DHT22;667;48.796;9.480;2022-08-27T18:00:03;23.30;91.30
1347;DHT22;667;48.796;9.480;2022-08-27T18:02:37;23.30;91.30
1347;DHT22;667;48.796;9.480;2022-08-27T18:05:05;23.30;91.40
1347;DHT22;667;48.796;9.480;2022-08-27T18:07:35;23.30;91.40
1347;DHT22;667;48.796;9.480;2022-08-27T18:10:01;23.30;91.50
1347;DHT22;667;48.796;9.480;2022-08-27T18:12:27;23.30;91.60
1347;DHT22;667;48.796;9.480;2022-08-27T18:15:04;23.20;91.60